createdAt,value
2023-03-26T00:01:40.673Z,28.54
2023-03-26T00:06:42.273Z,28.47
2023-03-26T00:11:43.876Z,28.38
2023-03-26T00:16:45.554Z,28.44
2023-03-26T00:21:48.199Z,28.42
2023-03-26T00:26:53.151Z,28.32
2023-03-26T00:31:54.784Z,28.23
2023-03-26T00:37:02.327Z,28.49
2023-03-26T00:42:06.734Z,28.51
2023-03-26T00:47:08.108Z,28.59
2023-03-26T00:52:09.827Z,28.60
2023-03-26T00:57:16.386Z,28.66
2023-03-26T01:02:24.999Z,28.76
2023-03-26T01:07:28.920Z,28.63
2023-03-26T01:12:31.899Z,28.76
2023-03-26T01:17:37.728Z,28.70
2023-03-26T01:22:40.516Z,28.80
2023-03-26T01:27:56.158Z,28.74
2023-03-26T01:33:13.869Z,28.74
2023-03-26T01:38:35.757Z,28.64
2023-03-26T01:43:55.574Z,28.60
2023-03-26T01:48:57.029Z,28.44
2023-03-26T01:53:58.450Z,28.77
2023-03-26T01:59:08.912Z,28.56
2023-03-26T02:04:26.409Z,28.68
2023-03-26T02:09:30.227Z,28.63
2023-03-26T02:14:31.617Z,28.61
2023-03-26T02:19:32.996Z,28.62
2023-03-26T02:24:34.394Z,28.73
2023-03-26T02:29:37.712Z,28.70
2023-03-26T02:34:42.310Z,28.95
2023-03-26T02:39:43.723Z,29.03
2023-03-26T02:44:45.127Z,28.93
2023-03-26T02:49:46.523Z,29.14
2023-03-26T02:54:48.041Z,29.24
2023-03-26T02:59:50.312Z,29.26
2023-03-26T03:04:51.901Z,29.27
2023-03-26T03:09:53.282Z,29.45
2023-03-26T03:14:54.658Z,29.35
2023-03-26T03:19:56.234Z,29.42
2023-03-26T03:24:59.760Z,29.29
2023-03-26T03:30:01.159Z,29.44
2023-03-26T03:35:02.595Z,29.60
2023-03-26T03:40:07.436Z,29.56
2023-03-26T03:45:09.362Z,29.55
2023-03-26T03:50:11.138Z,29.78
2023-03-26T03:55:14.024Z,29.91
2023-03-26T04:00:16.094Z,29.86
2023-03-26T04:05:17.549Z,29.92
2023-03-26T04:10:18.932Z,30.08
2023-03-26T04:15:20.324Z,29.99
2023-03-26T04:20:21.841Z,30.00
2023-03-26T04:25:30.444Z,30.08
2023-03-26T04:30:33.283Z,30.02
2023-03-26T04:35:34.693Z,29.85
2023-03-26T04:40:36.086Z,29.78
2023-03-26T04:45:37.487Z,29.65
2023-03-26T04:50:38.889Z,29.75
2023-03-26T04:55:47.051Z,29.62
2023-03-26T05:00:49.536Z,29.57
2023-03-26T05:05:51.355Z,29.51
2023-03-26T05:10:52.987Z,29.61
2023-03-26T05:15:55.522Z,29.35
2023-03-26T05:20:57.290Z,29.39
2023-03-26T05:25:58.905Z,29.26
2023-03-26T05:31:01.079Z,29.22
2023-03-26T05:36:12.958Z,29.12
2023-03-26T05:41:14.332Z,29.09
2023-03-26T05:46:15.977Z,29.05
2023-03-26T05:51:17.426Z,29.11
2023-03-26T05:56:18.828Z,29.03
2023-03-26T06:01:20.645Z,28.85
2023-03-26T06:06:22.099Z,29.04
2023-03-26T06:11:23.500Z,28.99
2023-03-26T06:16:25.988Z,29.04
2023-03-26T06:21:28.823Z,29.14
2023-03-26T06:26:30.459Z,29.10
2023-03-26T06:31:31.874Z,29.09
2023-03-26T06:36:33.277Z,29.13
2023-03-26T06:41:35.351Z,29.12
2023-03-26T06:46:36.953Z,29.15
2023-03-26T06:51:40.565Z,29.37
2023-03-26T06:56:42.032Z,29.29
2023-03-26T07:01:44.471Z,29.20
2023-03-26T07:06:46.685Z,29.13
2023-03-26T07:11:48.061Z,29.34
2023-03-26T07:16:49.520Z,29.25
2023-03-26T07:21:51.383Z,29.06
2023-03-26T07:27:00.659Z,29.05
2023-03-26T07:32:19.224Z,28.88
2023-03-26T07:37:46.917Z,28.76
2023-03-26T07:43:25.808Z,28.95
2023-03-26T07:48:29.573Z,28.85
2023-03-26T07:53:31.094Z,28.85
2023-03-26T07:58:53.967Z,28.76
2023-03-26T08:04:23.187Z,28.87
2023-03-26T08:09:38.486Z,28.85
2023-03-26T08:14:54.601Z,29.00
2023-03-26T08:20:11.287Z,28.80
2023-03-26T08:25:59.271Z,28.88
2023-03-26T08:31:02.936Z,28.77
2023-03-26T08:36:04.595Z,28.48
2023-03-26T08:41:08.757Z,28.49
2023-03-26T08:46:16.060Z,28.67
2023-03-26T08:51:39.068Z,28.29
2023-03-26T08:57:17.780Z,28.14
2023-03-26T09:02:35.725Z,28.19
2023-03-26T09:08:09.094Z,28.06
2023-03-26T09:13:51.811Z,27.99
2023-03-26T09:19:06.587Z,28.01
2023-03-26T09:24:28.711Z,27.91
2023-03-26T09:29:57.988Z,27.96
2023-03-26T09:35:12.634Z,27.86
2023-03-26T09:40:22.573Z,27.72
2023-03-26T09:45:44.246Z,27.91
2023-03-26T09:50:53.936Z,27.89
2023-03-26T09:56:16.296Z,27.73
2023-03-26T10:01:25.029Z,27.61
2023-03-26T10:06:47.614Z,27.69
2023-03-26T10:12:15.991Z,27.13
2023-03-26T10:17:53.866Z,27.19
2023-03-26T10:22:55.383Z,27.11
2023-03-26T10:28:31.767Z,26.75
2023-03-26T10:33:59.431Z,26.63
2023-03-26T10:39:03.940Z,26.70
2023-03-26T10:44:43.505Z,26.62
2023-03-26T10:50:06.527Z,26.77
2023-03-26T10:55:23.584Z,26.73
2023-03-26T11:00:28.810Z,26.87
2023-03-26T11:06:00.631Z,26.45
2023-03-26T11:11:08.617Z,26.38
2023-03-26T11:16:22.191Z,26.28
2023-03-26T11:21:30.510Z,25.96
2023-03-26T11:26:34.766Z,25.73
2023-03-26T11:31:39.021Z,25.60
2023-03-26T11:36:42.457Z,25.62
2023-03-26T11:41:43.866Z,25.20
2023-03-26T11:46:45.724Z,25.25
2023-03-26T11:51:47.742Z,25.14
2023-03-26T11:57:05.460Z,25.00
2023-03-26T12:02:14.077Z,25.19
2023-03-26T12:07:20.950Z,24.78
2023-03-26T12:12:25.575Z,24.85
2023-03-26T12:17:35.037Z,24.88
2023-03-26T12:22:37.838Z,24.81
2023-03-26T12:27:42.779Z,24.90
2023-03-26T12:32:46.849Z,24.84
2023-03-26T12:37:48.421Z,24.99
2023-03-26T12:44:46.872Z,25.07
2023-03-26T12:48:26.012Z,24.93
2023-03-26T12:53:34.811Z,25.02
2023-03-26T12:58:55.097Z,25.21
2023-03-26T13:04:11.716Z,25.40
2023-03-26T13:09:27.756Z,25.45
2023-03-26T13:14:53.415Z,25.58
2023-03-26T13:19:58.809Z,25.48
2023-03-26T13:25:21.771Z,25.65
2023-03-26T13:30:44.729Z,25.50
2023-03-26T13:36:03.359Z,25.75
2023-03-26T13:41:26.963Z,25.86
2023-03-26T13:46:38.491Z,25.55
2023-03-26T13:51:41.067Z,25.91
2023-03-26T13:57:02.746Z,25.98
2023-03-26T14:02:08.861Z,26.20
2023-03-26T14:07:20.996Z,26.91
2023-03-26T14:12:56.916Z,27.13
2023-03-26T14:18:06.148Z,27.75
2023-03-26T14:23:43.439Z,27.91
2023-03-26T14:29:09.829Z,28.27
2023-03-26T14:34:30.040Z,28.47
2023-03-26T14:39:38.375Z,28.72
2023-03-26T14:45:04.543Z,28.89
2023-03-26T14:50:46.407Z,29.19
2023-03-26T14:55:53.979Z,29.20
2023-03-26T15:01:20.625Z,29.28
2023-03-26T15:06:31.843Z,29.43
2023-03-26T15:11:51.857Z,29.42
2023-03-26T15:17:24.244Z,29.37
2023-03-26T15:22:47.514Z,29.23
2023-03-26T15:28:15.304Z,29.13
2023-03-26T15:33:34.843Z,29.15
2023-03-26T15:38:59.954Z,29.43
2023-03-26T15:44:26.416Z,29.16
2023-03-26T15:49:40.909Z,29.30
2023-03-26T15:55:04.982Z,29.24
2023-03-26T16:00:16.135Z,29.30
2023-03-26T16:05:24.109Z,29.41
2023-03-26T16:10:28.167Z,29.58
2023-03-26T16:15:31.970Z,29.41
2023-03-26T16:20:34.891Z,29.86
2023-03-26T16:26:19.068Z,29.94
2023-03-26T16:31:37.521Z,29.89
2023-03-26T16:36:44.545Z,30.34
2023-03-26T16:41:49.790Z,30.50
2023-03-26T16:47:12.450Z,30.78
2023-03-26T16:52:23.377Z,30.96
2023-03-26T16:57:27.703Z,30.96
2023-03-26T17:02:32.908Z,31.03
2023-03-26T17:07:48.299Z,31.22
2023-03-26T17:12:55.323Z,31.34
2023-03-26T17:18:18.461Z,31.54
2023-03-26T17:23:41.217Z,31.54
2023-03-26T17:28:50.486Z,31.62
2023-03-26T17:33:52.596Z,32.11
2023-03-26T17:38:56.578Z,32.10
2023-03-26T17:43:58.020Z,32.00
2023-03-26T17:49:01.458Z,32.07
2023-03-26T17:54:03.722Z,32.08
2023-03-26T17:59:11.964Z,32.05
2023-03-26T18:04:19.653Z,31.87
2023-03-26T18:09:38.186Z,31.77
2023-03-26T18:14:39.405Z,31.78
2023-03-26T18:19:52.569Z,31.71
2023-03-26T18:24:59.553Z,31.77
2023-03-26T18:30:03.261Z,31.71
2023-03-26T18:35:16.967Z,31.69
2023-03-26T18:40:20.860Z,31.77
2023-03-26T18:45:31.431Z,31.78
2023-03-26T18:50:36.482Z,31.69
2023-03-26T18:55:41.012Z,31.75
2023-03-26T19:00:42.582Z,31.65
2023-03-26T19:05:43.958Z,31.60
2023-03-26T19:10:47.443Z,31.74
2023-03-26T19:15:50.683Z,31.99
2023-03-26T19:20:59.630Z,31.70
2023-03-26T19:26:02.394Z,31.81
2023-03-26T19:31:16.356Z,31.74
2023-03-26T19:36:19.887Z,31.60
2023-03-26T19:41:25.605Z,31.66
2023-03-26T19:46:28.152Z,31.75
2023-03-26T19:51:33.386Z,31.65
2023-03-26T19:56:35.167Z,31.73
2023-03-26T20:01:36.631Z,31.46
2023-03-26T20:06:43.682Z,31.73
2023-03-26T20:11:46.864Z,31.71
2023-03-26T20:16:48.260Z,31.90
2023-03-26T20:21:49.893Z,32.01
2023-03-26T20:26:51.282Z,32.02
2023-03-26T20:31:52.711Z,31.84
2023-03-26T20:36:55.742Z,31.81
2023-03-26T20:41:57.244Z,32.04
2023-03-26T20:46:59.075Z,32.04
2023-03-26T20:52:00.686Z,31.77
2023-03-26T20:57:02.280Z,31.57
2023-03-26T21:02:03.728Z,31.52
2023-03-26T21:07:17.114Z,31.30
2023-03-26T21:12:29.399Z,31.23
2023-03-26T21:17:31.023Z,31.07
2023-03-26T21:22:37.322Z,31.15
2023-03-26T21:27:53.756Z,31.14
2023-03-26T21:32:55.215Z,31.05
2023-03-26T21:37:57.616Z,31.04
2023-03-26T21:42:59.311Z,31.27
2023-03-26T21:48:00.848Z,31.36
2023-03-26T21:53:02.579Z,31.27
2023-03-26T21:58:03.971Z,31.37
2023-03-26T22:03:18.474Z,31.40
2023-03-26T22:08:27.165Z,31.24
2023-03-26T22:13:28.542Z,31.13
2023-03-26T22:18:30.082Z,31.15
2023-03-26T22:23:34.010Z,31.09
2023-03-26T22:28:35.401Z,31.34
2023-03-26T22:33:37.627Z,31.09
2023-03-26T22:38:39.060Z,31.46
2023-03-26T22:43:40.781Z,31.49
2023-03-26T22:48:42.157Z,31.43
2023-03-26T22:53:43.916Z,31.56
2023-03-26T22:58:47.180Z,31.77
2023-03-26T23:03:48.734Z,31.84
2023-03-26T23:08:50.212Z,31.92
2023-03-26T23:13:51.656Z,31.86
2023-03-26T23:18:53.042Z,32.09
2023-03-26T23:23:54.414Z,32.02
2023-03-26T23:28:55.994Z,32.03
2023-03-26T23:33:57.547Z,32.10
2023-03-26T23:38:59.285Z,32.14
2023-03-26T23:44:01.435Z,32.17
2023-03-26T23:49:03.630Z,32.04
2023-03-26T23:54:05.110Z,32.12
2023-03-26T23:59:06.495Z,31.79
